sensor_id;sensor_type;location;lat;lon;timestamp;temperature;humidity
53844;DHT22;39744;53.314;5.710;2023-04-03T01:58:17;2.00;99.90
53844;DHT22;39744;53.314;5.710;2023-04-03T02:00:43;1.70;99.90
53844;DHT22;39744;53.314;5.710;2023-04-03T02:03:08;1.70;99.90
53844;DHT22;39744;53.314;5.710;2023-04-03T02:05:34;1.60;99.90
53844;DHT22;39744;53.314;5.710;2023-04-03T02:08:00;1.70;99.90
53844;DHT22;39744;53.314;5.710;2023-04-03T02:10:26;1.60;99.90
53844;DHT22;39744;53.314;5.710;2023-04-03T02:12:52;1.60;99.90
53844;DHT22;39744;53.314;5.710;2023-04-03T02:15:17;1.60;99.90
53844;DHT22;39744;53.314;5.710;2023-04-03T02:17:43;1.50;99.90
53844;DHT22;39744;53.314;5.710;2023-04-03T02:20:09;1.60;99.90
53844;DHT22;39744;53.314;5.710;2023-04-03T02:22:35;1.70;99.90
53844;DHT22;39744;53.314;5.710;2023-04-03T02:25:01;1.50;99.90
53844;DHT22;39744;53.314;5.710;2023-04-03T02:27:27;1.50;99.90
53844;DHT22;39744;53.314;5.710;2023-04-03T02:29:53;1.50;99.90
53844;DHT22;39744;53.314;5.710;2023-04-03T02:32:18;1.40;99.90
53844;DHT22;39744;53.314;5.710;2023-04-03T02:34:44;1.50;99.90
53844;DHT22;39744;53.314;5.710;2023-04-03T02:37:10;1.40;99.90
53844;DHT22;39744;53.314;5.710;2023-04-03T02:39:36;1.40;99.90
53844;DHT22;39744;53.314;5.710;2023-04-03T02:42:02;1.40;99.90
53844;DHT22;39744;53.314;5.710;2023-04-03T02:44:29;1.40;99.90
53844;DHT22;39744;53.314;5.710;2023-04-03T02:46:55;1.10;99.90
53844;DHT22;39744;53.314;5.710;2023-04-03T02:49:20;1.40;99.90
53844;DHT22;39744;53.314;5.710;2023-04-03T02:51:46;1.30;99.90
53844;DHT22;39744;53.314;5.710;2023-04-03T02:54:13;1.30;99.90
53844;DHT22;39744;53.314;5.710;2023-04-03T02:56:38;1.30;99.90
53844;DHT22;39744;53.314;5.710;2023-04-03T02:59:04;1.20;99.90
53844;DHT22;39744;53.314;5.710;2023-04-03T03:01:30;1.30;99.90
53844;DHT22;39744;53.314;5.710;2023-04-03T03:03:57;1.20;99.90
53844;DHT22;39744;53.314;5.710;2023-04-03T03:06:23;1.10;99.90
53844;DHT22;39744;53.314;5.710;2023-04-03T03:08:49;1.20;99.90
53844;DHT22;39744;53.314;5.710;2023-04-03T03:11:14;1.20;99.90
53844;DHT22;39744;53.314;5.710;2023-04-03T03:13:40;1.30;99.90
53844;DHT22;39744;53.314;5.710;2023-04-03T03:16:06;1.20;99.90
53844;DHT22;39744;53.314;5.710;2023-04-03T03:18:32;1.10;99.90
53844;DHT22;39744;53.314;5.710;2023-04-03T03:21:00;1.10;99.90
53844;DHT22;39744;53.314;5.710;2023-04-03T03:23:27;1.00;99.90
53844;DHT22;39744;53.314;5.710;2023-04-03T03:26:00;1.00;99.90
53844;DHT22;39744;53.314;5.710;2023-04-03T03:28:26;0.90;99.90
53844;DHT22;39744;53.314;5.710;2023-04-03T03:30:52;0.90;99.90
53844;DHT22;39744;53.314;5.710;2023-04-03T03:33:18;0.90;99.90
53844;DHT22;39744;53.314;5.710;2023-04-03T03:35:44;0.80;99.90
53844;DHT22;39744;53.314;5.710;2023-04-03T03:38:10;0.80;99.90
53844;DHT22;39744;53.314;5.710;2023-04-03T03:40:36;0.80;99.90
53844;DHT22;39744;53.314;5.710;2023-04-03T03:43:02;0.80;99.90
53844;DHT22;39744;53.314;5.710;2023-04-03T03:45:27;0.70;99.90
53844;DHT22;39744;53.314;5.710;2023-04-03T03:47:53;0.70;99.90
53844;DHT22;39744;53.314;5.710;2023-04-03T03:50:19;0.60;99.90
53844;DHT22;39744;53.314;5.710;2023-04-03T03:52:44;0.60;99.90
53844;DHT22;39744;53.314;5.710;2023-04-03T03:55:10;0.60;99.90
53844;DHT22;39744;53.314;5.710;2023-04-03T03:57:36;0.50;99.90
53844;DHT22;39744;53.314;5.710;2023-04-03T04:00:02;0.50;99.90
53844;DHT22;39744;53.314;5.710;2023-04-03T04:02:28;0.50;99.90
53844;DHT22;39744;53.314;5.710;2023-04-03T04:04:54;0.50;99.90
53844;DHT22;39744;53.314;5.710;2023-04-03T04:07:20;0.50;99.90
53844;DHT22;39744;53.314;5.710;2023-04-03T04:09:45;0.50;99.90
53844;DHT22;39744;53.314;5.710;2023-04-03T04:12:11;0.40;99.90
53844;DHT22;39744;53.314;5.710;2023-04-03T04:14:37;0.40;99.90
53844;DHT22;39744;53.314;5.710;2023-04-03T04:17:02;0.40;99.90
53844;DHT22;39744;53.314;5.710;2023-04-03T04:19:28;0.30;99.90
53844;DHT22;39744;53.314;5.710;2023-04-03T04:21:54;0.40;99.90
53844;DHT22;39744;53.314;5.710;2023-04-03T04:24:19;0.30;99.90
53844;DHT22;39744;53.314;5.710;2023-04-03T04:26:45;0.30;99.90
53844;DHT22;39744;53.314;5.710;2023-04-03T04:29:11;0.30;99.90
53844;DHT22;39744;53.314;5.710;2023-04-03T04:31:36;0.20;99.90
53844;DHT22;39744;53.314;5.710;2023-04-03T04:34:02;0.30;99.90
53844;DHT22;39744;53.314;5.710;2023-04-03T04:36:28;0.20;99.90
53844;DHT22;39744;53.314;5.710;2023-04-03T04:38:53;0.20;99.90
53844;DHT22;39744;53.314;5.710;2023-04-03T04:41:22;0.20;99.90
53844;DHT22;39744;53.314;5.710;2023-04-03T04:43:52;0.20;99.90
53844;DHT22;39744;53.314;5.710;2023-04-03T04:46:18;0.20;99.90
53844;DHT22;39744;53.314;5.710;2023-04-03T04:48:44;0.20;99.90
53844;DHT22;39744;53.314;5.710;2023-04-03T04:51:10;0.20;99.90
53844;DHT22;39744;53.314;5.710;2023-04-03T04:53:36;0.10;99.90
53844;DHT22;39744;53.314;5.710;2023-04-03T04:56:01;0.10;99.90
53844;DHT22;39744;53.314;5.710;2023-04-03T04:58:27;0.10;99.90
53844;DHT22;39744;53.314;5.710;2023-04-03T05:01:01;0.10;99.90
53844;DHT22;39744;53.314;5.710;2023-04-03T05:03:27;0.10;99.90
53844;DHT22;39744;53.314;5.710;2023-04-03T05:05:52;0.00;99.90
53844;DHT22;39744;53.314;5.710;2023-04-03T05:08:18;0.10;99.90
53844;DHT22;39744;53.314;5.710;2023-04-03T05:10:45;0.00;99.90
53844;DHT22;39744;53.314;5.710;2023-04-03T05:13:11;0.00;99.90
53844;DHT22;39744;53.314;5.710;2023-04-03T05:15:37;0.10;99.90
53844;DHT22;39744;53.314;5.710;2023-04-03T05:18:02;0.10;99.90
53844;DHT22;39744;53.314;5.710;2023-04-03T05:20:28;0.10;99.90
53844;DHT22;39744;53.314;5.710;2023-04-03T05:22:54;0.10;99.90
53844;DHT22;39744;53.314;5.710;2023-04-03T05:25:19;0.10;99.90
53844;DHT22;39744;53.314;5.710;2023-04-03T05:27:45;0.30;99.90
53844;DHT22;39744;53.314;5.710;2023-04-03T05:30:11;0.20;99.90
53844;DHT22;39744;53.314;5.710;2023-04-03T05:32:36;0.30;99.90
53844;DHT22;39744;53.314;5.710;2023-04-03T05:35:02;0.30;99.90
53844;DHT22;39744;53.314;5.710;2023-04-03T05:37:28;0.50;99.90
53844;DHT22;39744;53.314;5.710;2023-04-03T05:39:54;0.60;99.90
53844;DHT22;39744;53.314;5.710;2023-04-03T05:42:19;0.80;99.90
53844;DHT22;39744;53.314;5.710;2023-04-03T05:44:45;0.80;99.90
53844;DHT22;39744;53.314;5.710;2023-04-03T05:47:12;0.90;99.90
53844;DHT22;39744;53.314;5.710;2023-04-03T05:49:38;0.80;99.90
53844;DHT22;39744;53.314;5.710;2023-04-03T05:52:11;0.90;99.90
53844;DHT22;39744;53.314;5.710;2023-04-03T05:54:43;0.90;99.90
53844;DHT22;39744;53.314;5.710;2023-04-03T05:57:09;1.10;99.90
53844;DHT22;39744;53.314;5.710;2023-04-03T05:59:35;1.30;99.90
53844;DHT22;39744;53.314;5.710;2023-04-03T06:02:01;1.40;99.90
53844;DHT22;39744;53.314;5.710;2023-04-03T06:04:27;1.40;99.90
53844;DHT22;39744;53.314;5.710;2023-04-03T06:06:57;1.50;99.90
53844;DHT22;39744;53.314;5.710;2023-04-03T06:09:25;1.60;99.90
53844;DHT22;39744;53.314;5.710;2023-04-03T06:11:52;1.80;99.90
53844;DHT22;39744;53.314;5.710;2023-04-03T06:14:18;2.00;99.90
53844;DHT22;39744;53.314;5.710;2023-04-03T06:16:44;2.40;99.90
53844;DHT22;39744;53.314;5.710;2023-04-03T06:19:11;2.70;99.90
53844;DHT22;39744;53.314;5.710;2023-04-03T06:21:37;3.00;99.90
53844;DHT22;39744;53.314;5.710;2023-04-03T06:24:04;3.10;99.90
53844;DHT22;39744;53.314;5.710;2023-04-03T06:26:30;3.10;99.90
53844;DHT22;39744;53.314;5.710;2023-04-03T06:28:56;3.20;99.90
53844;DHT22;39744;53.314;5.710;2023-04-03T06:31:22;3.20;99.90
53844;DHT22;39744;53.314;5.710;2023-04-03T06:33:47;3.30;99.90
53844;DHT22;39744;53.314;5.710;2023-04-03T06:36:13;3.70;99.90
53844;DHT22;39744;53.314;5.710;2023-04-03T06:38:39;3.90;99.90
53844;DHT22;39744;53.314;5.710;2023-04-03T06:41:05;3.80;99.90
53844;DHT22;39744;53.314;5.710;2023-04-03T06:43:31;3.80;99.90
53844;DHT22;39744;53.314;5.710;2023-04-03T06:45:57;3.70;99.90
53844;DHT22;39744;53.314;5.710;2023-04-03T06:48:23;3.70;99.90
53844;DHT22;39744;53.314;5.710;2023-04-03T06:50:48;3.70;99.90
53844;DHT22;39744;53.314;5.710;2023-04-03T06:53:14;3.70;99.90
53844;DHT22;39744;53.314;5.710;2023-04-03T06:55:41;3.80;99.90
53844;DHT22;39744;53.314;5.710;2023-04-03T06:58:06;3.80;99.90
53844;DHT22;39744;53.314;5.710;2023-04-03T07:00:32;3.80;99.90
53844;DHT22;39744;53.314;5.710;2023-04-03T07:02:58;3.90;99.90
53844;DHT22;39744;53.314;5.710;2023-04-03T07:05:24;3.90;99.90
53844;DHT22;39744;53.314;5.710;2023-04-03T07:07:50;4.00;99.90
53844;DHT22;39744;53.314;5.710;2023-04-03T07:10:17;4.00;99.90
53844;DHT22;39744;53.314;5.710;2023-04-03T07:12:42;4.20;99.90
53844;DHT22;39744;53.314;5.710;2023-04-03T07:15:08;4.50;99.90
53844;DHT22;39744;53.314;5.710;2023-04-03T07:17:34;4.70;99.90
53844;DHT22;39744;53.314;5.710;2023-04-03T07:20:02;4.90;99.90
53844;DHT22;39744;53.314;5.710;2023-04-03T07:22:29;5.20;99.90
53844;DHT22;39744;53.314;5.710;2023-04-03T07:24:55;5.30;99.90
53844;DHT22;39744;53.314;5.710;2023-04-03T07:27:20;5.60;99.90
53844;DHT22;39744;53.314;5.710;2023-04-03T07:29:46;5.90;99.90
53844;DHT22;39744;53.314;5.710;2023-04-03T07:32:14;6.30;99.90
53844;DHT22;39744;53.314;5.710;2023-04-03T11:02:33;11.40;1.00
53844;DHT22;39744;53.314;5.710;2023-04-03T11:05:08;11.20;1.00
53844;DHT22;39744;53.314;5.710;2023-04-03T11:07:43;11.00;1.00
53844;DHT22;39744;53.314;5.710;2023-04-03T11:10:31;10.80;1.00
53844;DHT22;39744;53.314;5.710;2023-04-03T11:15:49;10.70;1.00
53844;DHT22;39744;53.314;5.710;2023-04-03T11:21:07;10.70;1.00
53844;DHT22;39744;53.314;5.710;2023-04-03T11:23:39;10.70;1.00
53844;DHT22;39744;53.314;5.710;2023-04-03T11:28:42;10.70;1.00
53844;DHT22;39744;53.314;5.710;2023-04-03T11:31:33;10.50;1.00
53844;DHT22;39744;53.314;5.710;2023-04-03T11:34:43;10.50;1.00
53844;DHT22;39744;53.314;5.710;2023-04-03T11:42:46;10.20;1.00
53844;DHT22;39744;53.314;5.710;2023-04-03T11:47:53;10.40;1.00
53844;DHT22;39744;53.314;5.710;2023-04-03T11:50:43;10.40;1.00
53844;DHT22;39744;53.314;5.710;2023-04-03T11:58:33;10.60;1.00
53844;DHT22;39744;53.314;5.710;2023-04-03T12:01:05;10.80;1.00
53844;DHT22;39744;53.314;5.710;2023-04-03T12:08:46;10.90;1.00
53844;DHT22;39744;53.314;5.710;2023-04-03T12:16:05;10.80;1.00
53844;DHT22;39744;53.314;5.710;2023-04-03T12:18:39;11.10;1.00
53844;DHT22;39744;53.314;5.710;2023-04-03T12:21:06;11.10;1.00
53844;DHT22;39744;53.314;5.710;2023-04-03T12:23:34;11.00;1.00
53844;DHT22;39744;53.314;5.710;2023-04-03T12:26:20;11.10;1.00
53844;DHT22;39744;53.314;5.710;2023-04-03T12:28:48;11.20;1.00
53844;DHT22;39744;53.314;5.710;2023-04-03T12:31:15;11.10;1.00
53844;DHT22;39744;53.314;5.710;2023-04-03T12:34:15;11.10;1.00
53844;DHT22;39744;53.314;5.710;2023-04-03T12:37:02;11.30;1.00
53844;DHT22;39744;53.314;5.710;2023-04-03T12:39:40;11.20;1.00
53844;DHT22;39744;53.314;5.710;2023-04-03T12:45:20;11.40;1.00
53844;DHT22;39744;53.314;5.710;2023-04-03T12:47:49;11.30;1.00
53844;DHT22;39744;53.314;5.710;2023-04-03T12:50:27;11.30;1.00
53844;DHT22;39744;53.314;5.710;2023-04-03T12:53:22;11.20;1.00
53844;DHT22;39744;53.314;5.710;2023-04-03T12:55:53;11.20;1.00
53844;DHT22;39744;53.314;5.710;2023-04-03T12:58:27;11.10;1.00
53844;DHT22;39744;53.314;5.710;2023-04-03T13:01:18;11.10;1.00
53844;DHT22;39744;53.314;5.710;2023-04-03T13:03:48;11.20;1.00
53844;DHT22;39744;53.314;5.710;2023-04-03T13:06:41;11.10;1.00
53844;DHT22;39744;53.314;5.710;2023-04-03T13:09:23;11.10;1.00
53844;DHT22;39744;53.314;5.710;2023-04-03T13:11:58;11.10;1.00
53844;DHT22;39744;53.314;5.710;2023-04-03T13:14:26;11.10;1.00
53844;DHT22;39744;53.314;5.710;2023-04-03T13:16:57;11.10;1.00
53844;DHT22;39744;53.314;5.710;2023-04-03T13:19:26;11.20;1.00
53844;DHT22;39744;53.314;5.710;2023-04-03T13:22:01;11.20;1.00
53844;DHT22;39744;53.314;5.710;2023-04-03T13:24:29;11.20;1.00
53844;DHT22;39744;53.314;5.710;2023-04-03T13:26:56;11.30;1.00
53844;DHT22;39744;53.314;5.710;2023-04-03T13:29:27;11.30;1.00
53844;DHT22;39744;53.314;5.710;2023-04-03T13:31:54;11.40;1.00
53844;DHT22;39744;53.314;5.710;2023-04-03T13:34:22;11.30;1.00
53844;DHT22;39744;53.314;5.710;2023-04-03T13:37:00;11.30;1.00
53844;DHT22;39744;53.314;5.710;2023-04-03T13:39:29;11.20;1.00
53844;DHT22;39744;53.314;5.710;2023-04-03T13:42:01;11.20;1.00
53844;DHT22;39744;53.314;5.710;2023-04-03T13:44:34;11.20;1.00
53844;DHT22;39744;53.314;5.710;2023-04-03T13:47:17;11.20;1.00
53844;DHT22;39744;53.314;5.710;2023-04-03T13:50:02;11.00;1.00
53844;DHT22;39744;53.314;5.710;2023-04-03T13:52:30;11.00;1.00
53844;DHT22;39744;53.314;5.710;2023-04-03T13:58:01;10.90;1.00
53844;DHT22;39744;53.314;5.710;2023-04-03T14:00:38;10.70;1.00
53844;DHT22;39744;53.314;5.710;2023-04-03T14:03:30;10.60;1.00
53844;DHT22;39744;53.314;5.710;2023-04-03T14:05:56;10.60;1.00
53844;DHT22;39744;53.314;5.710;2023-04-03T14:08:22;10.40;1.00
53844;DHT22;39744;53.314;5.710;2023-04-03T14:10:48;10.50;1.00
53844;DHT22;39744;53.314;5.710;2023-04-03T14:13:18;10.40;1.00
53844;DHT22;39744;53.314;5.710;2023-04-03T14:15:45;10.30;1.00
53844;DHT22;39744;53.314;5.710;2023-04-03T14:18:17;10.20;1.00
53844;DHT22;39744;53.314;5.710;2023-04-03T14:20:44;10.10;1.00
53844;DHT22;39744;53.314;5.710;2023-04-03T14:23:10;10.10;1.00
53844;DHT22;39744;53.314;5.710;2023-04-03T14:25:37;10.10;1.00
53844;DHT22;39744;53.314;5.710;2023-04-03T14:28:14;10.10;1.00
53844;DHT22;39744;53.314;5.710;2023-04-03T14:45:25;9.70;9.90
53844;DHT22;39744;53.314;5.710;2023-04-03T14:47:54;9.60;13.80
53844;DHT22;39744;53.314;5.710;2023-04-03T14:50:23;9.50;21.60
53844;DHT22;39744;53.314;5.710;2023-04-03T14:52:50;9.40;60.00
53844;DHT22;39744;53.314;5.710;2023-04-03T14:55:17;9.30;57.60
53844;DHT22;39744;53.314;5.710;2023-04-03T14:57:43;9.30;29.30
53844;DHT22;39744;53.314;5.710;2023-04-03T15:00:15;9.10;64.20
53844;DHT22;39744;53.314;5.710;2023-04-03T15:54:13;8.20;25.90
53844;DHT22;39744;53.314;5.710;2023-04-03T15:59:05;8.20;21.90
53844;DHT22;39744;53.314;5.710;2023-04-03T16:01:31;8.20;22.10
53844;DHT22;39744;53.314;5.710;2023-04-03T16:03:57;7.90;13.70
53844;DHT22;39744;53.314;5.710;2023-04-03T16:06:23;7.90;21.30
53844;DHT22;39744;53.314;5.710;2023-04-03T16:08:50;7.90;12.40
53844;DHT22;39744;53.314;5.710;2023-04-03T16:11:16;7.90;12.90
53844;DHT22;39744;53.314;5.710;2023-04-03T16:13:42;7.80;8.80
53844;DHT22;39744;53.314;5.710;2023-04-03T16:16:08;7.90;14.30
53844;DHT22;39744;53.314;5.710;2023-04-03T16:18:34;7.80;34.00
53844;DHT22;39744;53.314;5.710;2023-04-03T16:21:00;7.90;30.30
53844;DHT22;39744;53.314;5.710;2023-04-03T16:23:26;7.80;20.60
53844;DHT22;39744;53.314;5.710;2023-04-03T16:25:52;7.80;27.20
53844;DHT22;39744;53.314;5.710;2023-04-03T16:28:18;7.80;27.10
53844;DHT22;39744;53.314;5.710;2023-04-03T16:30:44;7.80;32.20
53844;DHT22;39744;53.314;5.710;2023-04-03T16:33:12;7.70;60.20
53844;DHT22;39744;53.314;5.710;2023-04-03T16:35:38;7.70;43.00
